Time;durP1;ratioP1;P1;durP2;ratioP2;P2;SDS_P1;SDS_P2;PMS_P1;PMS_P2;Temp;Humidity;BMP_temperature;BMP_pressure;BME280_temperature;BME280_humidity;BME280_pressure;Samples;Min_cycle;Max_cycle;Signal;HPM_P1;HPM_P2
2022/12/24 00:00:11;;;;;;;;;;;8.70;99.90;;;;;;5097422;28;19920;-77
2022/12/24 00:02:36;;;;;;;;;;;7.90;99.90;;;;;;5097451;28;20462;-74
2022/12/24 00:05:02;;;;;;;;;;;8.00;99.90;;;;;;5097732;28;19970;-75
2022/12/24 00:07:28;;;;;;;;;;;8.10;99.90;;;;;;5096322;28;20368;-76
2022/12/24 00:09:53;;;;;;;;;;;8.20;99.90;;;;;;5097333;28;20383;-76
2022/12/24 00:12:19;;;;;;;;;;;8.30;99.90;;;;;;5097128;28;20015;-76
2022/12/24 00:14:44;;;;;;;;;;;8.30;99.90;;;;;;5097008;28;19920;-76
2022/12/24 00:17:10;;;;;;;;;;;8.40;99.90;;;;;;5097279;28;19920;-75
2022/12/24 00:19:35;;;;;;;;;;;8.40;99.90;;;;;;5096875;28;20363;-76
2022/12/24 00:22:00;;;;;;;;;;;8.70;99.90;;;;;;5097306;28;19927;-78
2022/12/24 00:24:26;;;;;;;;;;;8.50;99.90;;;;;;5096931;28;19969;-76
2022/12/24 00:26:51;;;;;;;;;;;8.50;99.90;;;;;;5096791;28;20023;-76
2022/12/24 00:29:17;;;;;;;;;;;8.60;99.90;;;;;;5096785;28;19920;-75
2022/12/24 00:31:42;;;;;;;;;;;8.50;99.90;;;;;;5097242;28;20360;-76
2022/12/24 00:34:08;;;;;;;;;;;8.60;99.90;;;;;;5097024;28;20257;-76
2022/12/24 00:36:33;;;;;;;;;;;8.60;99.90;;;;;;5096660;28;19924;-75
2022/12/24 00:38:59;;;;;;;;;;;8.50;99.90;;;;;;5096596;28;19927;-76
2022/12/24 00:41:24;;;;;;;;;;;8.50;99.90;;;;;;5096756;28;20366;-75
2022/12/24 00:43:50;;;;;;;;;;;8.60;99.90;;;;;;5096738;28;19946;-76
2022/12/24 00:46:16;;;;;;;;;;;8.60;99.90;;;;;;5107262;27;20370;-76
2022/12/24 00:48:41;;;;;;;;;;;8.60;99.90;;;;;;5137624;27;19926;-76
2022/12/24 00:51:06;;;;;;;;;;;8.60;99.90;;;;;;5137472;27;20062;-75
2022/12/24 00:53:32;;;;;;;;;;;8.60;99.90;;;;;;5137195;27;19927;-76
2022/12/24 00:55:57;;;;;;;;;;;8.60;99.90;;;;;;5137291;27;19923;-75
2022/12/24 00:58:23;;;;;;;;;;;8.80;99.90;;;;;;5137218;27;19974;-75
2022/12/24 01:00:48;;;;;;;;;;;8.60;99.90;;;;;;5137145;27;19919;-76
2022/12/24 01:03:14;;;;;;;;;;;8.60;99.90;;;;;;5137696;27;19983;-76
2022/12/24 01:05:39;;;;;;;;;;;9.30;99.90;;;;;;5135596;27;19927;-76
2022/12/24 01:08:05;;;;;;;;;;;8.60;99.90;;;;;;5137076;27;19919;-76
2022/12/24 01:10:30;;;;;;;;;;;8.60;99.90;;;;;;5136949;27;19919;-76
2022/12/24 01:12:56;;;;;;;;;;;9.20;99.90;;;;;;5136637;27;19923;-76
2022/12/24 01:15:21;;;;;;;;;;;8.60;99.90;;;;;;5136773;27;19965;-76
2022/12/24 01:17:47;;;;;;;;;;;8.70;99.90;;;;;;5136847;27;20294;-75
2022/12/24 01:20:14;;;;;;;;;;;8.60;99.90;;;;;;5137386;27;19919;-77
2022/12/24 01:22:39;;;;;;;;;;;8.70;99.90;;;;;;5136852;27;19919;-78
2022/12/24 01:25:05;;;;;;;;;;;8.60;99.90;;;;;;5136535;27;20036;-75
2022/12/24 01:27:32;;;;;;;;;;;8.60;99.90;;;;;;5136444;27;19966;-75
2022/12/24 01:29:57;;;;;;;;;;;8.60;99.90;;;;;;5118411;27;19924;-74
2022/12/24 01:32:23;;;;;;;;;;;8.60;99.90;;;;;;5136412;27;20288;-76
2022/12/24 01:34:48;;;;;;;;;;;9.00;99.90;;;;;;5136560;27;19941;-77
2022/12/24 01:37:14;;;;;;;;;;;8.60;99.90;;;;;;5136488;27;20367;-78
2022/12/24 01:39:39;;;;;;;;;;;8.60;99.90;;;;;;5136518;27;19925;-75
2022/12/24 01:45:19;;;;;;;;;;;8.70;99.90;;;;;;5136194;27;19919;-76
2022/12/24 01:47:44;;;;;;;;;;;8.70;99.90;;;;;;5136207;27;20279;-76
2022/12/24 01:50:15;;;;;;;;;;;8.70;99.90;;;;;;5151793;27;19920;-76
2022/12/24 01:52:41;;;;;;;;;;;8.70;99.90;;;;;;5136245;27;20014;-76
2022/12/24 01:55:09;;;;;;;;;;;9.10;99.90;;;;;;5152170;27;19966;-76
2022/12/24 01:57:40;;;;;;;;;;;8.70;99.90;;;;;;5136171;27;19926;-77
2022/12/24 02:00:07;;;;;;;;;;;8.70;99.90;;;;;;5135955;27;19953;-75
2022/12/24 02:02:33;;;;;;;;;;;8.70;99.90;;;;;;5135805;27;19923;-76
2022/12/24 02:05:05;;;;;;;;;;;8.80;99.90;;;;;;5136219;27;20443;-76
2022/12/24 02:07:31;;;;;;;;;;;8.70;99.90;;;;;;5135750;27;19919;-76
2022/12/24 02:09:57;;;;;;;;;;;8.80;99.90;;;;;;5135687;27;20117;-76
2022/12/24 02:12:24;;;;;;;;;;;9.00;99.90;;;;;;5135591;27;19919;-76
2022/12/24 02:14:50;;;;;;;;;;;8.80;99.90;;;;;;5135516;27;19927;-76
2022/12/24 02:17:19;;;;;;;;;;;8.80;99.90;;;;;;5135505;27;19919;-75
2022/12/24 02:20:03;;;;;;;;;;;8.80;99.90;;;;;;5135427;27;19930;-76
2022/12/24 02:22:48;;;;;;;;;;;8.80;99.90;;;;;;5135470;27;19920;-76
2022/12/24 02:25:28;;;;;;;;;;;8.80;99.90;;;;;;5135515;27;19925;-76
2022/12/24 02:27:55;;;;;;;;;;;8.80;99.90;;;;;;5135713;27;19919;-76
2022/12/24 02:30:30;;;;;;;;;;;8.80;99.90;;;;;;5135510;27;19919;-76
2022/12/24 02:33:19;;;;;;;;;;;8.80;99.90;;;;;;5135695;27;19919;-76
2022/12/24 02:35:53;;;;;;;;;;;8.80;99.90;;;;;;5135333;27;19927;-76
2022/12/24 02:38:19;;;;;;;;;;;8.70;99.90;;;;;;5099970;27;20375;-76
2022/12/24 02:40:50;;;;;;;;;;;8.70;99.90;;;;;;5135183;27;19926;-77
2022/12/24 02:43:19;;;;;;;;;;;8.70;99.90;;;;;;5135116;27;20324;-76
2022/12/24 02:45:46;;;;;;;;;;;8.70;99.90;;;;;;5134689;27;20383;-76
2022/12/24 02:48:13;;;;;;;;;;;8.70;99.90;;;;;;5135514;27;19992;-76
2022/12/24 02:50:39;;;;;;;;;;;8.70;99.90;;;;;;5134873;27;19919;-76
2022/12/24 02:53:05;;;;;;;;;;;8.80;99.90;;;;;;5135050;27;20382;-76
2022/12/24 02:55:46;;;;;;;;;;;8.70;99.90;;;;;;5134894;27;19972;-76
2022/12/24 02:58:30;;;;;;;;;;;8.70;99.90;;;;;;5134834;27;19919;-77
2022/12/24 03:01:15;;;;;;;;;;;8.70;99.90;;;;;;5134596;27;19972;-76
2022/12/24 03:03:59;;;;;;;;;;;8.70;99.90;;;;;;5134676;27;20367;-75
2022/12/24 03:06:43;;;;;;;;;;;8.70;99.90;;;;;;5134802;27;19985;-76
2022/12/24 03:09:15;;;;;;;;;;;8.70;99.90;;;;;;5134702;27;19919;-75
2022/12/24 03:11:43;;;;;;;;;;;8.70;99.90;;;;;;5134389;27;20331;-76
2022/12/24 03:14:09;;;;;;;;;;;8.70;99.90;;;;;;5134769;27;19963;-76
2022/12/24 03:16:35;;;;;;;;;;;8.60;99.90;;;;;;5134640;27;19919;-75
2022/12/24 03:19:00;;;;;;;;;;;8.60;99.90;;;;;;5134733;27;20381;-77
2022/12/24 03:21:31;;;;;;;;;;;8.60;99.90;;;;;;5134708;27;20009;-76
2022/12/24 03:23:57;;;;;;;;;;;8.70;99.90;;;;;;5134279;28;19923;-76
2022/12/24 03:26:23;;;;;;;;;;;8.60;99.90;;;;;;5134630;28;19925;-76
2022/12/24 03:28:49;;;;;;;;;;;9.50;99.90;;;;;;5135295;27;20310;-76
2022/12/24 03:31:15;;;;;;;;;;;8.60;99.90;;;;;;5138858;27;19926;-76
2022/12/24 03:33:40;;;;;;;;;;;8.60;99.90;;;;;;5138946;27;19923;-76
2022/12/24 03:36:06;;;;;;;;;;;8.70;99.90;;;;;;5138972;27;19962;-76
2022/12/24 03:38:32;;;;;;;;;;;8.60;99.90;;;;;;5138953;27;20264;-76
2022/12/24 03:40:57;;;;;;;;;;;8.70;99.90;;;;;;5138855;27;19919;-76
2022/12/24 03:43:23;;;;;;;;;;;8.70;99.90;;;;;;5138601;27;20374;-76
2022/12/24 03:45:48;;;;;;;;;;;8.70;99.90;;;;;;5138479;27;19923;-76
2022/12/24 03:48:14;;;;;;;;;;;8.70;99.90;;;;;;5139216;27;20428;-76
2022/12/24 03:50:39;;;;;;;;;;;8.70;99.90;;;;;;5138495;27;19920;-76
2022/12/24 03:53:05;;;;;;;;;;;8.90;99.90;;;;;;5138543;27;19920;-76
2022/12/24 03:55:31;;;;;;;;;;;8.70;99.90;;;;;;5138327;27;19927;-76
2022/12/24 03:57:56;;;;;;;;;;;8.70;99.90;;;;;;5138296;27;19997;-76
2022/12/24 04:00:22;;;;;;;;;;;9.50;99.90;;;;;;5138415;27;20009;-76
2022/12/24 04:02:47;;;;;;;;;;;8.70;99.90;;;;;;5138771;27;19930;-76
2022/12/24 04:05:17;;;;;;;;;;;8.70;99.90;;;;;;5138128;27;19919;-76
2022/12/24 04:07:42;;;;;;;;;;;8.70;99.90;;;;;;5138265;27;19920;-76
2022/12/24 04:10:08;;;;;;;;;;;8.70;99.90;;;;;;5138167;27;19926;-76
2022/12/24 04:12:34;;;;;;;;;;;8.70;99.90;;;;;;5138048;27;20278;-76
2022/12/24 04:15:00;;;;;;;;;;;8.70;99.90;;;;;;5138004;27;20018;-76
2022/12/24 04:17:25;;;;;;;;;;;8.70;99.90;;;;;;5138134;27;20040;-75
2022/12/24 04:19:51;;;;;;;;;;;8.80;99.90;;;;;;5138287;27;19923;-76
2022/12/24 04:22:16;;;;;;;;;;;8.80;99.90;;;;;;5138017;27;20434;-77
2022/12/24 04:24:42;;;;;;;;;;;8.80;99.90;;;;;;5138205;27;19919;-76
2022/12/24 04:27:07;;;;;;;;;;;8.80;99.90;;;;;;5137970;27;19953;-76
2022/12/24 04:29:33;;;;;;;;;;;8.80;99.90;;;;;;5137791;27;20224;-76
2022/12/24 04:31:58;;;;;;;;;;;8.80;99.90;;;;;;5137786;27;19920;-76
2022/12/24 04:34:24;;;;;;;;;;;8.80;99.90;;;;;;5137758;27;19923;-76
2022/12/24 04:36:49;;;;;;;;;;;8.80;99.90;;;;;;5137563;27;20409;-76
2022/12/24 04:39:15;;;;;;;;;;;8.80;99.90;;;;;;5137500;27;19920;-76
2022/12/24 04:41:40;;;;;;;;;;;9.00;99.90;;;;;;5137542;27;20270;-76
2022/12/24 04:44:08;;;;;;;;;;;8.80;99.90;;;;;;5137395;27;19969;-76
2022/12/24 04:46:34;;;;;;;;;;;8.80;99.90;;;;;;5137108;27;19920;-76
2022/12/24 04:48:59;;;;;;;;;;;8.80;99.90;;;;;;5137211;27;20252;-76
2022/12/24 04:51:26;;;;;;;;;;;8.80;99.90;;;;;;5137448;27;20019;-76
2022/12/24 04:53:51;;;;;;;;;;;8.80;99.90;;;;;;5119123;27;19923;-77
2022/12/24 04:56:21;;;;;;;;;;;8.90;99.90;;;;;;5137176;27;19929;-76
2022/12/24 04:58:48;;;;;;;;;;;8.80;99.90;;;;;;5137252;27;19983;-76
2022/12/24 05:01:15;;;;;;;;;;;8.80;99.90;;;;;;5136949;27;19921;-77
2022/12/24 05:03:41;;;;;;;;;;;8.70;99.90;;;;;;5137191;27;19919;-76
2022/12/24 05:06:12;;;;;;;;;;;8.70;99.90;;;;;;5137173;27;19923;-77
2022/12/24 05:08:37;;;;;;;;;;;8.70;99.90;;;;;;5137339;27;20283;-77
2022/12/24 05:11:03;;;;;;;;;;;8.80;99.90;;;;;;5136810;27;19919;-76
2022/12/24 05:13:29;;;;;;;;;;;8.70;99.90;;;;;;5136983;27;19920;-76
2022/12/24 05:15:54;;;;;;;;;;;9.60;99.90;;;;;;5136967;27;19927;-77
2022/12/24 05:18:20;;;;;;;;;;;8.70;99.90;;;;;;5136729;27;19920;-76
2022/12/24 05:20:46;;;;;;;;;;;8.70;99.90;;;;;;5136869;27;19919;-76
2022/12/24 05:28:44;;;;;;;;;;;8.80;99.90;;;;;;5136241;27;20014;-76
2022/12/24 05:31:10;;;;;;;;;;;8.80;99.90;;;;;;5134908;27;20318;-77
2022/12/24 05:33:35;;;;;;;;;;;8.70;99.90;;;;;;5135149;27;20032;-76
2022/12/24 05:36:01;;;;;;;;;;;8.80;99.90;;;;;;5135285;27;19942;-77
2022/12/24 05:38:26;;;;;;;;;;;8.80;99.90;;;;;;5135080;27;19927;-75
2022/12/24 05:40:52;;;;;;;;;;;8.80;99.90;;;;;;5134742;27;19967;-78
2022/12/24 05:43:17;;;;;;;;;;;8.80;99.90;;;;;;5135438;27;20359;-77
2022/12/24 05:45:42;;;;;;;;;;;8.70;99.90;;;;;;5135738;27;19925;-78
2022/12/24 05:48:08;;;;;;;;;;;8.80;99.90;;;;;;5136747;27;19926;-77
2022/12/24 05:50:35;;;;;;;;;;;8.70;99.90;;;;;;5136293;27;19919;-77
2022/12/24 05:53:00;;;;;;;;;;;8.70;99.90;;;;;;5135492;27;19923;-76
2022/12/24 05:55:26;;;;;;;;;;;8.70;99.90;;;;;;5136078;27;19947;-76
2022/12/24 05:57:51;;;;;;;;;;;8.70;99.90;;;;;;5118082;27;20279;-76
2022/12/24 06:00:17;;;;;;;;;;;8.60;99.90;;;;;;5136528;27;20347;-77
2022/12/24 06:02:42;;;;;;;;;;;8.70;99.90;;;;;;5136278;27;19919;-75
2022/12/24 06:05:08;;;;;;;;;;;8.70;99.90;;;;;;5136096;27;19926;-76
2022/12/24 06:07:34;;;;;;;;;;;8.70;99.90;;;;;;5135824;27;20014;-76
2022/12/24 06:09:59;;;;;;;;;;;8.70;99.90;;;;;;5135769;27;20052;-75
2022/12/24 06:12:25;;;;;;;;;;;9.20;99.90;;;;;;5135718;27;19923;-76
2022/12/24 06:14:50;;;;;;;;;;;8.70;99.90;;;;;;5135703;27;19925;-77
2022/12/24 06:17:16;;;;;;;;;;;8.70;99.90;;;;;;5136043;27;19930;-77
2022/12/24 06:19:41;;;;;;;;;;;9.10;99.90;;;;;;5135623;27;20346;-76
2022/12/24 06:22:07;;;;;;;;;;;8.80;99.90;;;;;;5135569;27;19919;-76
2022/12/24 06:24:32;;;;;;;;;;;8.70;99.90;;;;;;5135115;27;20323;-77
2022/12/24 06:26:58;;;;;;;;;;;8.70;99.90;;;;;;5117501;27;19919;-77
2022/12/24 06:29:23;;;;;;;;;;;9.30;99.90;;;;;;5135536;27;19987;-77
2022/12/24 06:31:49;;;;;;;;;;;8.70;99.90;;;;;;5135416;27;19923;-77
2022/12/24 06:34:14;;;;;;;;;;;8.70;99.90;;;;;;5135411;27;19919;-77
2022/12/24 06:36:40;;;;;;;;;;;8.70;99.90;;;;;;5135495;27;19990;-77
2022/12/24 06:39:05;;;;;;;;;;;8.70;99.90;;;;;;5135246;27;19923;-78
2022/12/24 06:41:31;;;;;;;;;;;8.70;99.90;;;;;;5135229;27;19920;-77
2022/12/24 06:43:56;;;;;;;;;;;8.60;99.90;;;;;;5135048;27;19923;-77
2022/12/24 06:46:22;;;;;;;;;;;9.10;99.90;;;;;;5134822;27;20389;-77
2022/12/24 06:48:47;;;;;;;;;;;8.60;99.90;;;;;;5135494;27;19919;-78
2022/12/24 06:51:14;;;;;;;;;;;8.60;99.90;;;;;;5135058;27;19933;-77
2022/12/24 06:53:39;;;;;;;;;;;8.60;99.90;;;;;;5135208;27;20049;-78
2022/12/24 06:56:06;;;;;;;;;;;9.40;99.90;;;;;;5134883;27;20093;-77
2022/12/24 06:58:33;;;;;;;;;;;8.60;99.90;;;;;;5134867;27;19923;-78
2022/12/24 07:01:01;;;;;;;;;;;8.60;99.90;;;;;;5135661;27;19946;-77
2022/12/24 07:03:27;;;;;;;;;;;8.60;99.90;;;;;;5134125;27;19923;-77
2022/12/24 07:05:53;;;;;;;;;;;8.50;99.90;;;;;;5135009;27;20002;-76
2022/12/24 07:08:18;;;;;;;;;;;8.50;99.90;;;;;;5134910;27;20443;-80
2022/12/24 07:10:44;;;;;;;;;;;8.50;99.90;;;;;;5134731;27;20019;-77
2022/12/24 07:13:09;;;;;;;;;;;8.50;99.90;;;;;;5135024;27;19919;-78
2022/12/24 07:15:35;;;;;;;;;;;8.50;99.90;;;;;;5135261;27;19926;-77
2022/12/24 07:18:00;;;;;;;;;;;8.50;99.90;;;;;;5135517;27;19926;-78
2022/12/24 07:20:26;;;;;;;;;;;8.40;99.90;;;;;;5116532;27;20017;-77
2022/12/24 07:22:51;;;;;;;;;;;9.00;99.90;;;;;;5134404;27;19964;-76
2022/12/24 07:25:17;;;;;;;;;;;8.40;99.90;;;;;;5134759;28;20010;-76
2022/12/24 07:27:42;;;;;;;;;;;8.60;99.90;;;;;;5134724;28;19977;-78
2022/12/24 07:30:08;;;;;;;;;;;8.70;99.90;;;;;;5134639;28;19927;-78
2022/12/24 07:32:34;;;;;;;;;;;8.40;99.90;;;;;;5134865;28;19919;-80
2022/12/24 07:34:59;;;;;;;;;;;8.30;99.90;;;;;;5134802;28;20016;-77
2022/12/24 07:37:25;;;;;;;;;;;8.30;99.90;;;;;;5134737;28;19926;-76
2022/12/24 07:39:50;;;;;;;;;;;8.40;99.90;;;;;;5134244;28;19919;-78
2022/12/24 07:42:16;;;;;;;;;;;8.30;99.90;;;;;;5133543;28;19931;-78
2022/12/24 07:44:41;;;;;;;;;;;8.30;99.90;;;;;;5134530;28;19919;-78
2022/12/24 07:47:07;;;;;;;;;;;8.20;99.90;;;;;;5134389;28;19920;-78
2022/12/24 07:49:33;;;;;;;;;;;8.20;99.90;;;;;;5134485;28;19923;-78
2022/12/24 07:51:59;;;;;;;;;;;8.30;99.90;;;;;;5134556;28;19927;-78
2022/12/24 07:54:24;;;;;;;;;;;8.50;99.90;;;;;;5134459;28;19919;-78
2022/12/24 07:56:50;;;;;;;;;;;8.20;99.90;;;;;;5134683;28;19953;-78
2022/12/24 07:59:15;;;;;;;;;;;8.00;99.90;;;;;;5134375;28;20352;-78
2022/12/24 08:01:41;;;;;;;;;;;8.20;99.90;;;;;;5134525;28;19926;-79
2022/12/24 08:04:06;;;;;;;;;;;8.20;99.90;;;;;;5134193;28;20391;-80
2022/12/24 08:06:32;;;;;;;;;;;8.20;99.90;;;;;;5134392;28;19920;-79
2022/12/24 08:08:57;;;;;;;;;;;8.20;99.90;;;;;;5134147;28;19923;-79
2022/12/24 08:11:23;;;;;;;;;;;8.40;99.90;;;;;;5115595;28;19927;-78
2022/12/24 08:13:48;;;;;;;;;;;8.20;99.90;;;;;;5134213;28;19927;-78
2022/12/24 08:16:14;;;;;;;;;;;8.30;99.90;;;;;;5137052;27;20367;-79
2022/12/24 08:18:39;;;;;;;;;;;8.30;99.90;;;;;;5138271;27;19974;-76
2022/12/24 08:21:06;;;;;;;;;;;9.00;99.90;;;;;;5137983;27;19919;-78
2022/12/24 08:23:31;;;;;;;;;;;8.30;99.90;;;;;;5137952;27;19920;-79
2022/12/24 08:25:57;;;;;;;;;;;8.30;99.90;;;;;;5137637;27;19920;-79
2022/12/24 08:28:22;;;;;;;;;;;8.30;99.90;;;;;;5137715;27;20424;-78
2022/12/24 08:30:48;;;;;;;;;;;8.30;99.90;;;;;;5138232;27;19934;-78
2022/12/24 08:33:14;;;;;;;;;;;8.50;99.90;;;;;;5119450;27;19919;-81
2022/12/24 08:35:39;;;;;;;;;;;8.40;99.90;;;;;;5137841;27;19927;-83
2022/12/24 08:38:05;;;;;;;;;;;8.40;99.90;;;;;;5137869;27;20260;-79
2022/12/24 08:40:30;;;;;;;;;;;8.40;99.90;;;;;;5137698;27;20026;-77
2022/12/24 08:42:56;;;;;;;;;;;8.50;99.90;;;;;;5137536;27;20331;-76
2022/12/24 08:45:21;;;;;;;;;;;8.60;99.90;;;;;;5137436;27;19989;-77
2022/12/24 08:47:47;;;;;;;;;;;9.40;99.90;;;;;;5137971;27;19967;-76
2022/12/24 08:50:12;;;;;;;;;;;7.70;99.90;;;;;;5137178;27;19926;-78
2022/12/24 08:52:38;;;;;;;;;;;8.60;99.90;;;;;;5137112;27;20282;-76
2022/12/24 08:55:04;;;;;;;;;;;8.60;99.90;;;;;;5137248;27;20387;-76
2022/12/24 08:57:29;;;;;;;;;;;8.70;99.90;;;;;;5137345;27;19919;-79
2022/12/24 08:59:55;;;;;;;;;;;8.70;99.90;;;;;;5137283;27;19926;-75
2022/12/24 09:02:21;;;;;;;;;;;8.70;99.90;;;;;;5135336;27;19919;-75
2022/12/24 09:04:46;;;;;;;;;;;8.80;99.90;;;;;;5136576;27;19923;-75
2022/12/24 09:07:12;;;;;;;;;;;8.80;99.90;;;;;;5136395;27;20282;-77
2022/12/24 09:09:37;;;;;;;;;;;8.80;99.90;;;;;;5136460;27;19977;-76
2022/12/24 09:12:04;;;;;;;;;;;8.90;99.90;;;;;;5117854;27;19926;-76
2022/12/24 09:14:30;;;;;;;;;;;8.90;99.90;;;;;;5118522;27;19919;-78
2022/12/24 09:16:55;;;;;;;;;;;8.90;99.90;;;;;;5136449;27;20359;-77
2022/12/24 09:19:21;;;;;;;;;;;8.90;99.90;;;;;;5136541;27;20275;-77
2022/12/24 09:21:46;;;;;;;;;;;8.90;99.90;;;;;;5136120;27;20005;-79
2022/12/24 09:24:12;;;;;;;;;;;8.90;99.90;;;;;;5136318;27;20416;-76
2022/12/24 09:26:39;;;;;;;;;;;9.00;99.90;;;;;;5117084;28;19926;-78
2022/12/24 09:29:04;;;;;;;;;;;9.00;99.90;;;;;;5118154;27;19930;-78
2022/12/24 09:31:30;;;;;;;;;;;9.00;99.90;;;;;;5118551;27;19923;-77
2022/12/24 09:33:55;;;;;;;;;;;9.10;99.90;;;;;;5136490;27;19919;-77
2022/12/24 09:36:21;;;;;;;;;;;9.10;99.90;;;;;;5117632;27;19926;-77
2022/12/24 09:38:47;;;;;;;;;;;9.10;99.90;;;;;;5135581;27;19966;-76
2022/12/24 09:41:14;;;;;;;;;;;9.10;99.90;;;;;;5136314;27;19919;-77
2022/12/24 09:43:44;;;;;;;;;;;9.10;99.90;;;;;;5136607;27;19980;-77
2022/12/24 09:46:22;;;;;;;;;;;9.20;99.90;;;;;;5136664;27;19919;-77
2022/12/24 09:48:49;;;;;;;;;;;9.20;99.90;;;;;;5118104;27;19919;-77
2022/12/24 09:51:18;;;;;;;;;;;9.20;99.90;;;;;;5136065;27;20381;-77
2022/12/24 09:53:47;;;;;;;;;;;9.20;99.90;;;;;;5136159;27;19920;-77
2022/12/24 09:56:17;;;;;;;;;;;9.30;99.90;;;;;;5136225;27;19919;-79
2022/12/24 09:58:44;;;;;;;;;;;9.30;99.90;;;;;;5136512;27;20394;-78
2022/12/24 10:01:11;;;;;;;;;;;9.40;99.90;;;;;;5136471;27;19920;-78
2022/12/24 10:03:36;;;;;;;;;;;9.40;99.90;;;;;;5136238;27;19976;-77
2022/12/24 10:06:11;;;;;;;;;;;9.50;99.90;;;;;;5135770;27;19997;-78
2022/12/24 10:08:45;;;;;;;;;;;9.60;99.90;;;;;;5135662;27;19999;-78
2022/12/24 10:11:23;;;;;;;;;;;9.60;99.90;;;;;;5135756;27;20405;-78
2022/12/24 10:13:49;;;;;;;;;;;9.60;99.90;;;;;;5135842;27;19946;-78
2022/12/24 10:16:30;;;;;;;;;;;9.50;99.90;;;;;;5135785;27;20347;-79
2022/12/24 10:18:56;;;;;;;;;;;9.50;99.90;;;;;;5135767;27;20074;-77
2022/12/24 10:21:51;;;;;;;;;;;9.50;99.90;;;;;;5117600;27;19919;-78
2022/12/24 10:24:16;;;;;;;;;;;9.50;99.90;;;;;;5117781;27;19970;-77
2022/12/24 10:26:47;;;;;;;;;;;9.40;99.90;;;;;;5135598;27;19923;-79
2022/12/24 10:29:15;;;;;;;;;;;9.40;99.90;;;;;;5135346;27;19942;-80
2022/12/24 10:31:49;;;;;;;;;;;9.40;99.90;;;;;;5135376;27;20438;-79
2022/12/24 10:34:18;;;;;;;;;;;9.50;99.90;;;;;;5135393;27;20394;-77
2022/12/24 10:36:43;;;;;;;;;;;9.50;99.90;;;;;;5135500;27;19919;-77
2022/12/24 10:39:15;;;;;;;;;;;9.50;99.90;;;;;;5117287;27;19926;-75
2022/12/24 10:41:40;;;;;;;;;;;9.60;99.90;;;;;;5135877;27;20349;-76
2022/12/24 10:44:09;;;;;;;;;;;9.50;99.90;;;;;;5135085;27;19974;-77
2022/12/24 10:46:38;;;;;;;;;;;9.50;99.90;;;;;;5135019;27;20426;-78
2022/12/24 10:49:05;;;;;;;;;;;9.50;99.90;;;;;;5135459;27;19926;-79
2022/12/24 10:51:50;;;;;;;;;;;9.50;99.90;;;;;;5134947;27;19962;-78
2022/12/24 10:54:22;;;;;;;;;;;9.60;99.90;;;;;;5134985;27;19926;-79
2022/12/24 10:56:51;;;;;;;;;;;9.60;99.90;;;;;;5135146;27;19926;-77
2022/12/24 10:59:24;;;;;;;;;;;9.60;99.90;;;;;;5134959;27;19923;-76
2022/12/24 11:01:50;;;;;;;;;;;9.50;99.90;;;;;;5134913;27;19926;-75
2022/12/24 11:04:17;;;;;;;;;;;9.90;99.90;;;;;;5134873;27;19920;-80
2022/12/24 11:06:53;;;;;;;;;;;9.50;99.90;;;;;;5134744;27;19933;-77
2022/12/24 11:09:24;;;;;;;;;;;9.60;99.90;;;;;;5134457;27;20294;-77
2022/12/24 11:11:49;;;;;;;;;;;9.60;99.90;;;;;;5134872;27;20374;-77
2022/12/24 11:14:16;;;;;;;;;;;9.60;99.90;;;;;;5135026;27;19944;-77
2022/12/24 11:16:47;;;;;;;;;;;9.60;99.90;;;;;;5134789;27;19981;-76
2022/12/24 11:19:18;;;;;;;;;;;9.80;99.90;;;;;;5134947;27;19920;-77
2022/12/24 11:21:43;;;;;;;;;;;9.70;99.90;;;;;;5134638;27;19919;-78
2022/12/24 11:24:12;;;;;;;;;;;10.20;99.90;;;;;;5135087;27;19968;-77
2022/12/24 11:26:38;;;;;;;;;;;9.70;99.90;;;;;;5134614;28;19926;-78
2022/12/24 11:29:05;;;;;;;;;;;9.70;99.90;;;;;;5134418;28;19970;-74
2022/12/24 11:31:34;;;;;;;;;;;9.70;99.90;;;;;;5134467;28;19920;-74
2022/12/24 11:34:00;;;;;;;;;;;9.80;99.90;;;;;;5134722;28;19919;-74
2022/12/24 11:36:28;;;;;;;;;;;9.90;99.90;;;;;;5134501;28;20382;-78
2022/12/24 11:38:58;;;;;;;;;;;10.00;99.90;;;;;;5134575;28;19964;-78
2022/12/24 11:41:24;;;;;;;;;;;9.80;99.90;;;;;;5139639;28;20403;-77
2022/12/24 11:43:50;;;;;;;;;;;9.80;99.90;;;;;;5134561;28;19920;-77
2022/12/24 11:46:16;;;;;;;;;;;9.90;99.90;;;;;;5134599;28;19966;-78
2022/12/24 11:48:41;;;;;;;;;;;9.90;99.90;;;;;;5134433;28;19981;-76
2022/12/24 11:51:18;;;;;;;;;;;9.80;99.90;;;;;;5137743;27;20376;-79
2022/12/24 11:53:48;;;;;;;;;;;9.90;99.90;;;;;;5139080;27;19967;-78
2022/12/24 11:56:34;;;;;;;;;;;9.90;99.90;;;;;;5138755;27;19966;-79
2022/12/24 11:59:04;;;;;;;;;;;10.00;99.90;;;;;;5138049;27;20389;-82
2022/12/24 12:01:35;;;;;;;;;;;9.90;99.90;;;;;;5138573;27;19920;-81
2022/12/24 12:04:03;;;;;;;;;;;10.50;99.90;;;;;;5138979;27;19978;-78
2022/12/24 12:06:38;;;;;;;;;;;10.30;99.90;;;;;;5138153;27;19926;-77
2022/12/24 12:09:06;;;;;;;;;;;9.90;99.90;;;;;;5138115;27;20416;-76
2022/12/24 12:11:32;;;;;;;;;;;10.00;99.90;;;;;;5138076;27;19919;-76
2022/12/24 12:14:00;;;;;;;;;;;10.00;99.90;;;;;;5137900;27;19926;-76
2022/12/24 12:19:31;;;;;;;;;;;10.10;99.90;;;;;;5138161;27;19924;-74
2022/12/24 12:21:58;;;;;;;;;;;10.10;99.90;;;;;;5138070;27;19989;-79
2022/12/24 12:24:35;;;;;;;;;;;10.10;99.90;;;;;;5137934;27;20390;-78
2022/12/24 12:27:12;;;;;;;;;;;10.10;99.90;;;;;;5136181;27;20015;-77
2022/12/24 12:29:43;;;;;;;;;;;10.10;99.90;;;;;;5119358;27;19920;-79
2022/12/24 12:32:24;;;;;;;;;;;10.10;99.90;;;;;;5137808;27;19919;-82
2022/12/24 12:35:03;;;;;;;;;;;10.10;99.90;;;;;;5137109;27;20386;-77
2022/12/24 12:37:38;;;;;;;;;;;10.10;99.90;;;;;;5137996;27;19919;-78
2022/12/24 12:40:11;;;;;;;;;;;10.10;99.90;;;;;;5137460;27;19941;-79
2022/12/24 12:42:38;;;;;;;;;;;10.10;99.90;;;;;;5137507;27;19931;-80
2022/12/24 12:45:22;;;;;;;;;;;10.10;99.90;;;;;;5117379;27;19920;-78
2022/12/24 12:48:10;;;;;;;;;;;10.10;99.90;;;;;;5135865;27;19968;-77
2022/12/24 12:50:36;;;;;;;;;;;10.20;99.90;;;;;;5136426;27;20247;-78
2022/12/24 12:53:02;;;;;;;;;;;10.20;99.90;;;;;;5137197;27;19919;-80
2022/12/24 12:55:36;;;;;;;;;;;10.20;99.90;;;;;;5137138;27;19919;-78
2022/12/24 12:58:05;;;;;;;;;;;10.20;99.90;;;;;;5137354;27;20264;-80
2022/12/24 13:00:33;;;;;;;;;;;10.40;99.90;;;;;;5117705;27;19920;-79
2022/12/24 13:02:58;;;;;;;;;;;10.30;99.90;;;;;;5115351;28;19919;-79
2022/12/24 13:05:42;;;;;;;;;;;10.60;99.90;;;;;;5103760;27;19919;-80
2022/12/24 13:08:26;;;;;;;;;;;10.20;99.90;;;;;;5137039;27;19919;-79
2022/12/24 13:11:01;;;;;;;;;;;10.20;99.90;;;;;;5136961;27;19919;-82
2022/12/24 13:13:32;;;;;;;;;;;10.20;99.90;;;;;;5137084;27;19923;-80
2022/12/24 13:16:24;;;;;;;;;;;10.20;99.90;;;;;;5137060;27;19968;-81
2022/12/24 13:18:58;;;;;;;;;;;10.20;99.90;;;;;;5136901;27;19919;-80
2022/12/24 13:21:25;;;;;;;;;;;10.20;99.90;;;;;;5137453;27;20343;-82
2022/12/24 13:24:03;;;;;;;;;;;10.20;99.90;;;;;;5137089;27;19919;-80
2022/12/24 13:26:28;;;;;;;;;;;10.10;99.90;;;;;;5117551;27;19927;-80
2022/12/24 13:28:54;;;;;;;;;;;10.10;99.90;;;;;;5136985;27;19919;-80
2022/12/24 13:31:19;;;;;;;;;;;10.10;99.90;;;;;;5136690;27;19920;-80
2022/12/24 13:33:48;;;;;;;;;;;10.10;99.90;;;;;;5136656;27;20297;-80
2022/12/24 13:36:17;;;;;;;;;;;10.20;99.90;;;;;;5136301;27;20441;-80
2022/12/24 13:38:45;;;;;;;;;;;10.10;99.90;;;;;;5136402;27;19926;-80
2022/12/24 13:41:29;;;;;;;;;;;10.10;99.90;;;;;;5136673;27;19920;-80
2022/12/24 13:44:11;;;;;;;;;;;10.00;99.90;;;;;;5136389;27;19972;-80
2022/12/24 13:46:55;;;;;;;;;;;10.00;99.90;;;;;;5136319;27;19934;-80
2022/12/24 13:49:20;;;;;;;;;;;9.90;99.90;;;;;;5136405;27;19919;-80
2022/12/24 13:51:47;;;;;;;;;;;9.90;99.90;;;;;;5136599;27;20017;-80
2022/12/24 13:54:13;;;;;;;;;;;9.70;99.90;;;;;;5136400;27;19919;-80
2022/12/24 13:56:40;;;;;;;;;;;9.70;99.90;;;;;;5136208;27;19919;-80
2022/12/24 13:59:24;;;;;;;;;;;9.60;99.90;;;;;;5137074;27;20052;-80
2022/12/24 14:01:50;;;;;;;;;;;9.60;99.90;;;;;;5136311;27;19926;-79
2022/12/24 14:04:27;;;;;;;;;;;9.60;99.90;;;;;;5136050;27;20382;-80
2022/12/24 14:06:53;;;;;;;;;;;9.50;99.90;;;;;;5136095;27;20006;-80
2022/12/24 14:09:20;;;;;;;;;;;9.50;99.90;;;;;;5136509;27;20349;-80
2022/12/24 14:11:52;;;;;;;;;;;9.40;99.90;;;;;;5135831;27;19923;-80
2022/12/24 14:14:31;;;;;;;;;;;9.40;99.90;;;;;;5135705;27;19920;-78
2022/12/24 14:16:58;;;;;;;;;;;9.40;99.90;;;;;;5135631;27;19923;-79
2022/12/24 14:19:28;;;;;;;;;;;9.30;99.90;;;;;;5135688;27;19919;-79
2022/12/24 14:21:57;;;;;;;;;;;9.40;99.90;;;;;;5135672;27;19920;-80
2022/12/24 14:24:30;;;;;;;;;;;9.30;99.90;;;;;;5117600;27;19966;-80
2022/12/24 14:26:57;;;;;;;;;;;9.30;99.90;;;;;;5135599;27;19920;-80
2022/12/24 14:29:26;;;;;;;;;;;9.30;99.90;;;;;;5135542;27;19972;-80
2022/12/24 14:31:55;;;;;;;;;;;9.30;99.90;;;;;;5135357;27;20260;-80
2022/12/24 14:34:21;;;;;;;;;;;9.20;99.90;;;;;;5117107;27;20035;-80
2022/12/24 14:36:48;;;;;;;;;;;9.80;99.90;;;;;;5117353;27;20318;-80
2022/12/24 14:39:20;;;;;;;;;;;9.30;99.90;;;;;;5135135;27;20451;-80
2022/12/24 14:41:52;;;;;;;;;;;9.20;99.90;;;;;;5135621;27;20268;-80
2022/12/24 14:44:31;;;;;;;;;;;9.20;99.90;;;;;;5134991;27;20374;-80